Time;durP1;ratioP1;P1;durP2;ratioP2;P2;SDS_P1;SDS_P2;PMS_P1;PMS_P2;Temp;Humidity;BMP_temperature;BMP_pressure;BME280_temperature;BME280_humidity;BME280_pressure;Samples;Min_cycle;Max_cycle;Signal;HPM_P1;HPM_P2
2023/06/08 00:00:26;;;;;;;3.63;2.67;;;20.60;92.70;;;;;;5093988;28;20102;-72
2023/06/08 00:02:53;;;;;;;6.50;2.90;;;20.60;92.70;;;;;;5078710;28;20028;-73
2023/06/08 00:05:20;;;;;;;3.90;2.88;;;20.60;92.70;;;;;;5096489;28;20430;-72
2023/06/08 00:07:46;;;;;;;8.02;2.60;;;20.60;92.70;;;;;;5096560;28;20095;-72
2023/06/08 00:10:12;;;;;;;4.90;3.08;;;20.60;92.80;;;;;;5096668;28;20396;-72
2023/06/08 00:12:38;;;;;;;3.67;3.10;;;20.60;92.80;;;;;;5096747;28;20028;-72
2023/06/08 00:15:05;;;;;;;5.65;3.10;;;20.60;93.00;;;;;;5096627;28;20024;-73
2023/06/08 00:17:31;;;;;;;9.02;3.28;;;20.60;93.10;;;;;;5096854;28;20020;-71
2023/06/08 00:19:59;;;;;;;7.00;3.33;;;20.50;93.10;;;;;;5096624;28;20024;-72
2023/06/08 00:22:29;;;;;;;4.68;3.85;;;20.50;93.50;;;;;;5096386;28;20394;-72
2023/06/08 00:24:54;;;;;;;11.68;3.35;;;20.50;93.90;;;;;;5096457;28;20028;-73
2023/06/08 00:27:20;;;;;;;6.20;3.92;;;20.50;94.00;;;;;;5096611;28;20031;-72
2023/06/08 00:29:46;;;;;;;11.57;3.38;;;20.40;94.40;;;;;;5096334;28;20411;-72
2023/06/08 00:32:11;;;;;;;14.43;4.82;;;20.40;94.70;;;;;;5096340;28;20067;-72
2023/06/08 00:34:37;;;;;;;6.53;3.92;;;20.40;94.90;;;;;;5095903;28;20130;-72
2023/06/08 00:37:03;;;;;;;7.32;3.90;;;20.30;95.00;;;;;;5096392;28;20539;-72
2023/06/08 00:39:28;;;;;;;8.82;4.30;;;20.30;95.10;;;;;;5096369;28;20020;-72
2023/06/08 00:41:54;;;;;;;9.20;4.28;;;20.30;95.20;;;;;;5096322;28;20036;-73
2023/06/08 00:44:20;;;;;;;9.70;4.15;;;20.30;95.40;;;;;;5096174;28;20407;-72
2023/06/08 00:46:47;;;;;;;11.57;4.78;;;20.30;95.70;;;;;;5096392;28;20443;-72
2023/06/08 00:49:17;;;;;;;8.02;4.50;;;20.30;95.80;;;;;;5095744;28;20104;-72
2023/06/08 00:51:44;;;;;;;12.77;4.55;;;20.30;95.90;;;;;;5095617;28;20038;-72
2023/06/08 00:54:12;;;;;;;10.15;4.82;;;20.20;96.10;;;;;;5095896;28;20099;-72
2023/06/08 00:56:40;;;;;;;5.70;5.07;;;20.20;96.20;;;;;;5096036;28;20024;-72
2023/06/08 00:59:09;;;;;;;10.88;4.80;;;20.20;96.20;;;;;;5093446;28;20395;-72
2023/06/08 01:01:35;;;;;;;7.70;4.25;;;20.20;96.20;;;;;;5093307;28;20464;-72
2023/06/08 01:04:09;;;;;;;8.07;4.47;;;20.20;96.10;;;;;;5074708;28;20032;-72
2023/06/08 01:06:45;;;;;;;7.10;3.97;;;20.20;96.10;;;;;;5095122;28;20024;-72
2023/06/08 01:09:46;;;;;;;9.18;4.80;;;20.20;96.20;;;;;;5095467;28;20031;-72
2023/06/08 01:12:22;;;;;;;11.43;4.40;;;20.10;96.10;;;;;;5093831;28;20578;-72
2023/06/08 01:15:08;;;;;;;12.57;4.82;;;20.10;96.00;;;;;;5094752;28;20107;-72
2023/06/08 01:17:52;;;;;;;7.28;4.28;;;20.10;96.10;;;;;;5095371;28;20103;-72
2023/06/08 01:20:24;;;;;;;7.38;4.07;;;20.10;96.10;;;;;;5095255;28;20032;-72
2023/06/08 01:22:56;;;;;;;;;;;20.10;96.10;;;;;;5095512;28;20115;-72
2023/06/08 01:25:25;;;;;;;7.13;4.00;;;20.10;96.10;;;;;;5095162;28;20382;-72
2023/06/08 01:28:12;;;;;;;13.02;4.28;;;20.10;96.10;;;;;;5095056;28;20016;-72
2023/06/08 01:30:39;;;;;;;9.50;3.67;;;20.10;96.20;;;;;;5076847;28;20028;-72
2023/06/08 01:33:05;;;;;;;7.50;3.80;;;20.00;96.10;;;;;;5094968;28;20527;-72
2023/06/08 01:35:31;;;;;;;6.65;3.85;;;20.00;96.10;;;;;;5094758;28;20048;-72
2023/06/08 01:38:03;;;;;;;7.93;3.75;;;20.00;96.20;;;;;;5095046;28;20472;-72
2023/06/08 01:40:35;;;;;;;10.75;4.32;;;19.90;96.30;;;;;;5095068;28;20531;-72
2023/06/08 01:43:05;;;;;;;6.18;3.60;;;19.90;96.40;;;;;;5094943;28;20464;-72
2023/06/08 01:45:35;;;;;;;6.53;4.20;;;19.90;96.50;;;;;;5095068;28;20043;-72
2023/06/08 01:48:05;;;;;;;7.25;3.97;;;19.90;96.50;;;;;;5094906;28;20016;-72
2023/06/08 01:50:33;;;;;;;7.07;4.40;;;19.90;96.60;;;;;;5094683;28;20036;-72
2023/06/08 01:52:59;;;;;;;4.65;3.53;;;19.90;96.60;;;;;;5094591;28;20013;-72
2023/06/08 01:55:27;;;;;;;5.35;3.95;;;19.90;96.60;;;;;;5094490;28;20088;-72
2023/06/08 01:57:54;;;;;;;5.50;4.40;;;19.90;96.60;;;;;;5094593;28;20035;-72
2023/06/08 02:00:21;;;;;;;7.70;4.05;;;19.90;96.60;;;;;;5094698;28;20035;-72
2023/06/08 02:02:47;;;;;;;5.68;4.00;;;19.90;96.60;;;;;;5094737;28;20020;-72
2023/06/08 02:05:14;;;;;;;12.32;3.63;;;19.90;96.60;;;;;;5094511;28;20478;-72
2023/06/08 02:07:41;;;;;;;10.13;3.60;;;19.90;96.60;;;;;;5094593;28;20024;-72
2023/06/08 02:10:09;;;;;;;6.68;3.83;;;19.80;96.60;;;;;;5094419;28;20081;-72
2023/06/08 02:12:35;;;;;;;8.15;3.85;;;19.80;96.50;;;;;;5094534;28;20055;-72
2023/06/08 02:15:01;;;;;;;5.55;3.88;;;19.80;96.50;;;;;;5094472;28;20058;-72
2023/06/08 02:17:35;;;;;;;8.80;3.90;;;19.80;96.40;;;;;;5094496;28;20020;-72
2023/06/08 02:20:06;;;;;;;7.72;3.53;;;19.70;96.50;;;;;;5094376;28;20024;-72
2023/06/08 02:22:32;;;;;;;8.32;3.58;;;19.70;96.60;;;;;;5093891;28;20012;-72
2023/06/08 02:24:58;;;;;;;8.80;3.45;;;19.70;96.80;;;;;;5094022;28;20039;-72
2023/06/08 02:27:24;;;;;;;9.63;3.90;;;19.70;96.50;;;;;;5094135;28;20020;-72
2023/06/08 02:29:50;;;;;;;8.80;3.40;;;19.60;96.40;;;;;;5094226;28;20032;-72
2023/06/08 02:32:16;;;;;;;8.75;3.70;;;19.70;96.20;;;;;;5075665;28;20056;-72
2023/06/08 02:34:41;;;;;;;4.75;3.40;;;19.60;96.10;;;;;;5093842;28;20543;-72
2023/06/08 02:37:07;;;;;;;6.25;3.63;;;19.60;96.10;;;;;;5093859;28;20028;-72
2023/06/08 02:39:33;;;;;;;8.30;3.45;;;19.60;96.10;;;;;;5094012;28;20020;-72
2023/06/08 02:41:58;;;;;;;6.75;3.30;;;19.60;96.10;;;;;;5093849;28;20024;-72
2023/06/08 02:44:24;;;;;;;7.38;3.50;;;19.50;96.30;;;;;;5093865;28;20077;-72
2023/06/08 02:46:50;;;;;;;8.15;4.03;;;19.50;96.30;;;;;;5093911;28;20058;-72
2023/06/08 02:49:16;;;;;;;8.38;3.58;;;19.50;96.20;;;;;;5093708;28;20111;-72
2023/06/08 02:51:42;;;;;;;7.28;3.70;;;19.40;96.10;;;;;;5093354;28;20430;-72
2023/06/08 02:54:07;;;;;;;5.88;3.58;;;19.40;96.30;;;;;;5093770;28;20024;-72
2023/06/08 02:56:33;;;;;;;7.18;3.45;;;19.40;96.00;;;;;;5093617;28;20024;-73
2023/06/08 02:58:59;;;;;;;7.80;3.20;;;19.40;96.00;;;;;;5093446;28;20365;-72
2023/06/08 03:01:30;;;;;;;3.97;3.20;;;19.40;96.10;;;;;;5093498;28;20150;-72
2023/06/08 03:03:56;;;;;;;7.97;3.28;;;19.40;96.00;;;;;;5075730;28;20372;-72
2023/06/08 03:06:22;;;;;;;5.40;3.00;;;19.40;96.10;;;;;;5093476;28;20012;-72
2023/06/08 03:08:55;;;;;;;8.05;3.05;;;19.40;96.10;;;;;;5093440;28;20483;-72
2023/06/08 03:11:22;;;;;;;5.55;3.47;;;19.30;96.20;;;;;;5093317;28;20503;-72
2023/06/08 03:13:48;;;;;;;7.90;3.10;;;19.30;96.30;;;;;;5093282;28;20024;-72
2023/06/08 03:16:14;;;;;;;4.70;2.83;;;19.30;96.30;;;;;;5093285;28;20024;-72
2023/06/08 03:18:41;;;;;;;11.13;3.17;;;19.30;96.30;;;;;;5093329;28;20025;-72
2023/06/08 03:21:12;;;;;;;6.10;3.05;;;19.30;96.30;;;;;;5093196;28;20023;-72
2023/06/08 03:23:38;;;;;;;6.82;3.40;;;19.30;96.30;;;;;;5093161;28;20023;-72
2023/06/08 03:26:04;;;;;;;4.32;2.80;;;19.30;96.20;;;;;;5093044;28;20480;-73
2023/06/08 03:28:30;;;;;;;4.25;3.00;;;19.20;96.20;;;;;;5093268;28;20027;-72
2023/06/08 03:30:56;;;;;;;6.15;3.33;;;19.20;96.10;;;;;;5093274;28;20028;-72
2023/06/08 03:33:22;;;;;;;6.15;3.05;;;19.20;96.40;;;;;;5093023;28;20026;-72
2023/06/08 03:35:50;;;;;;;5.93;2.97;;;19.20;96.10;;;;;;5092361;28;20077;-72
2023/06/08 03:38:16;;;;;;;4.65;3.10;;;19.20;96.00;;;;;;5092768;28;20022;-72
2023/06/08 03:40:41;;;;;;;6.50;3.10;;;19.10;96.00;;;;;;5092990;28;20032;-72
2023/06/08 03:43:07;;;;;;;3.47;2.80;;;19.10;96.00;;;;;;5092875;28;20027;-72
2023/06/08 03:45:33;;;;;;;3.97;2.70;;;19.10;96.10;;;;;;5092904;28;20516;-72
2023/06/08 03:47:58;;;;;;;7.75;3.30;;;19.10;96.10;;;;;;5092984;28;20027;-72
2023/06/08 03:50:24;;;;;;;10.43;3.30;;;19.00;96.20;;;;;;5092767;28;20047;-72
2023/06/08 03:52:50;;;;;;;15.32;3.58;;;19.00;96.20;;;;;;5092778;28;20047;-72
2023/06/08 03:55:16;;;;;;;8.45;2.80;;;19.00;96.30;;;;;;5093023;28;20028;-72
2023/06/08 03:57:42;;;;;;;8.38;3.70;;;19.10;96.40;;;;;;5092982;28;20028;-72
2023/06/08 04:00:11;;;;;;;8.07;3.60;;;19.10;96.40;;;;;;5092480;28;20028;-72
2023/06/08 04:02:38;;;;;;;10.35;3.65;;;19.10;96.50;;;;;;5092837;28;20468;-72
2023/06/08 04:05:08;;;;;;;11.65;3.85;;;19.00;96.50;;;;;;5092732;28;20017;-72
2023/06/08 04:07:36;;;;;;;9.82;3.92;;;19.00;96.60;;;;;;5092872;28;20027;-72
2023/06/08 04:10:02;;;;;;;8.25;3.75;;;19.00;96.70;;;;;;5092865;28;20070;-72
2023/06/08 04:12:28;;;;;;;11.77;3.38;;;19.00;96.70;;;;;;5074576;28;20440;-72
2023/06/08 04:14:54;;;;;;;12.75;3.63;;;19.10;96.80;;;;;;5092663;28;20028;-72
2023/06/08 04:17:20;;;;;;;11.18;4.05;;;19.10;96.80;;;;;;5092595;28;20031;-72
2023/06/08 04:19:45;;;;;;;9.32;3.60;;;19.10;96.70;;;;;;5092584;28;20020;-73
2023/06/08 04:22:11;;;;;;;8.65;3.45;;;19.10;96.70;;;;;;5092197;28;20027;-72
2023/06/08 04:24:38;;;;;;;12.40;3.63;;;19.10;96.90;;;;;;5092231;28;20020;-72
2023/06/08 04:27:05;;;;;;;4.32;3.25;;;19.10;97.00;;;;;;5092403;28;20067;-72
2023/06/08 04:29:31;;;;;;;6.00;3.65;;;19.10;97.00;;;;;;5092872;28;20024;-72
2023/06/08 04:31:57;;;;;;;8.57;4.00;;;19.10;97.10;;;;;;5092546;28;20056;-72
2023/06/08 04:34:23;;;;;;;7.53;3.60;;;19.10;97.10;;;;;;5092887;28;20066;-72
2023/06/08 04:36:49;;;;;;;9.32;3.60;;;19.10;97.20;;;;;;5092510;28;20035;-72
2023/06/08 04:39:15;;;;;;;7.60;3.88;;;19.10;97.40;;;;;;5092434;28;20107;-72
2023/06/08 04:41:44;;;;;;;6.32;4.10;;;19.20;97.40;;;;;;5092609;28;20414;-73
2023/06/08 04:44:13;;;;;;;10.85;4.32;;;19.10;97.40;;;;;;5092403;28;20446;-72
2023/06/08 04:46:41;;;;;;;8.45;4.45;;;19.10;97.40;;;;;;5094257;28;20020;-72
2023/06/08 04:49:12;;;;;;;9.02;4.47;;;19.10;97.40;;;;;;5095918;28;20479;-72
2023/06/08 04:51:40;;;;;;;11.07;4.38;;;19.20;97.40;;;;;;5077847;28;20024;-72
2023/06/08 04:54:13;;;;;;;7.50;4.40;;;19.20;97.30;;;;;;5095956;28;20020;-71
2023/06/08 04:56:41;;;;;;;8.00;4.30;;;19.20;97.30;;;;;;5095928;28;20031;-72
2023/06/08 04:59:09;;;;;;;8.95;4.07;;;19.20;97.30;;;;;;5096036;28;20036;-72
2023/06/08 05:01:35;;;;;;;10.38;4.07;;;19.20;97.30;;;;;;5095953;28;20020;-72
2023/06/08 05:04:02;;;;;;;6.82;4.55;;;19.20;97.50;;;;;;5077792;28;20112;-72
2023/06/08 05:06:28;;;;;;;10.73;4.18;;;19.20;97.50;;;;;;5095887;28;20502;-72
2023/06/08 05:08:53;;;;;;;9.10;4.13;;;19.30;97.50;;;;;;5095835;28;20099;-72
2023/06/08 05:11:19;;;;;;;5.88;3.85;;;19.30;97.50;;;;;;5095628;28;20071;-72
2023/06/08 05:13:44;;;;;;;8.82;3.63;;;19.30;97.40;;;;;;5095688;28;20052;-72
2023/06/08 05:16:10;;;;;;;6.13;3.25;;;19.30;97.40;;;;;;5095684;28;20027;-72
2023/06/08 05:18:36;;;;;;;4.93;2.78;;;19.40;97.40;;;;;;5095713;28;20078;-72
2023/06/08 05:21:02;;;;;;;6.00;2.72;;;19.40;97.20;;;;;;5095593;28;20067;-72
2023/06/08 05:23:28;;;;;;;6.82;2.90;;;19.40;97.10;;;;;;5077395;28;20030;-73
2023/06/08 05:25:53;;;;;;;6.45;2.63;;;19.50;96.90;;;;;;5095501;28;20020;-72
2023/06/08 05:28:19;;;;;;;6.97;2.65;;;19.50;96.70;;;;;;5095321;28;20020;-71
2023/06/08 05:30:45;;;;;;;9.15;2.70;;;19.60;96.30;;;;;;5095012;28;20032;-73
2023/06/08 05:33:10;;;;;;;7.88;2.60;;;19.60;95.80;;;;;;5095339;28;20048;-72
2023/06/08 05:35:36;;;;;;;5.25;2.53;;;19.60;95.60;;;;;;5094942;28;20078;-72
2023/06/08 05:38:02;;;;;;;5.10;2.70;;;19.70;95.40;;;;;;5094836;28;20432;-73
2023/06/08 05:40:28;;;;;;;6.32;2.40;;;19.70;95.10;;;;;;5076682;28;20108;-73
2023/06/08 05:42:53;;;;;;;6.10;2.60;;;19.80;95.00;;;;;;5094803;28;20052;-72
2023/06/08 05:45:19;;;;;;;12.68;2.40;;;19.80;94.90;;;;;;5076375;28;20456;-72
2023/06/08 05:47:45;;;;;;;2.85;2.22;;;19.90;94.90;;;;;;5094835;28;20016;-73
2023/06/08 05:50:11;;;;;;;6.85;2.53;;;19.80;94.80;;;;;;5094919;28;20071;-72
2023/06/08 05:52:36;;;;;;;3.65;2.30;;;19.90;94.60;;;;;;5094576;28;20024;-72
2023/06/08 05:55:02;;;;;;;2.28;1.90;;;20.00;94.50;;;;;;5094797;28;20028;-73
2023/06/08 05:57:28;;;;;;;6.30;2.40;;;20.00;94.40;;;;;;5093892;28;20025;-73
2023/06/08 05:59:54;;;;;;;7.63;2.03;;;20.00;94.20;;;;;;5094566;28;20031;-73
2023/06/08 06:02:20;;;;;;;5.30;2.08;;;20.10;94.10;;;;;;5094351;28;20020;-74
2023/06/08 06:04:45;;;;;;;6.47;2.40;;;20.10;94.20;;;;;;5094259;28;20024;-73
2023/06/08 06:07:11;;;;;;;4.35;2.20;;;20.20;94.10;;;;;;5094165;28;20039;-73
2023/06/08 06:09:37;;;;;;;3.47;2.22;;;20.20;94.00;;;;;;5094616;28;20383;-73
2023/06/08 06:12:03;;;;;;;5.95;2.42;;;20.30;93.90;;;;;;5094162;28;20468;-73
2023/06/08 06:14:39;;;;;;;6.10;2.10;;;20.30;93.80;;;;;;5094267;28;20027;-73
2023/06/08 06:17:06;;;;;;;4.88;2.05;;;20.30;93.80;;;;;;5094370;28;20024;-73
2023/06/08 06:19:36;;;;;;;4.97;2.00;;;20.30;93.70;;;;;;5094627;28;20027;-72
2023/06/08 06:22:09;;;;;;;3.30;2.05;;;20.30;93.40;;;;;;5094478;28;20017;-74
2023/06/08 06:24:35;;;;;;;11.95;3.17;;;20.40;93.40;;;;;;5094203;28;20024;-74
2023/06/08 06:27:01;;;;;;;5.53;2.20;;;20.40;93.30;;;;;;5093901;28;20025;-72
2023/06/08 06:29:27;;;;;;;5.05;1.90;;;20.40;93.20;;;;;;5075902;28;20388;-72
2023/06/08 06:31:53;;;;;;;6.07;1.88;;;20.40;93.20;;;;;;5093896;28;20089;-73
2023/06/08 06:34:20;;;;;;;5.70;2.08;;;20.50;93.30;;;;;;5093659;28;20054;-73
2023/06/08 06:36:46;;;;;;;7.85;2.40;;;20.60;93.40;;;;;;5093864;28;20419;-73
2023/06/08 06:39:12;;;;;;;6.35;2.20;;;20.60;93.20;;;;;;5093807;28;20184;-72
2023/06/08 06:41:38;;;;;;;3.65;2.38;;;20.80;93.10;;;;;;5093947;28;20103;-73
2023/06/08 06:44:04;;;;;;;2.55;2.08;;;20.80;92.90;;;;;;5093949;28;20032;-73
2023/06/08 06:46:30;;;;;;;3.85;1.90;;;20.90;92.80;;;;;;5093686;28;20087;-73
2023/06/08 06:48:56;;;;;;;2.13;1.90;;;20.90;92.70;;;;;;5093600;28;20138;-73
2023/06/08 06:51:22;;;;;;;4.65;2.28;;;21.00;92.60;;;;;;5093511;28;20089;-73
2023/06/08 06:53:47;;;;;;;4.60;2.28;;;21.10;92.70;;;;;;5075675;28;20069;-73
2023/06/08 06:56:16;;;;;;;2.40;2.20;;;21.20;92.60;;;;;;5093710;28;20020;-73
2023/06/08 06:58:44;;;;;;;3.85;2.22;;;21.30;92.40;;;;;;5093648;28;20103;-73
2023/06/08 07:01:11;;;;;;;9.20;3.10;;;21.40;92.10;;;;;;5093582;28;20052;-73
2023/06/08 07:03:40;;;;;;;6.10;2.30;;;21.40;91.90;;;;;;5093699;28;20582;-73
2023/06/08 07:06:10;;;;;;;2.78;2.10;;;21.50;91.80;;;;;;5093583;28;20384;-73
2023/06/08 07:08:37;;;;;;;3.25;1.88;;;21.50;91.40;;;;;;5093212;28;20031;-73
2023/06/08 07:11:07;;;;;;;5.50;1.92;;;21.60;91.20;;;;;;5092977;28;20498;-73
2023/06/08 07:13:35;;;;;;;5.32;2.20;;;21.60;91.30;;;;;;5093306;28;20016;-73
2023/06/08 07:16:03;;;;;;;5.43;2.17;;;21.60;91.30;;;;;;5093055;28;20056;-72
2023/06/08 07:18:28;;;;;;;6.15;2.50;;;21.70;91.30;;;;;;5093205;28;20099;-72
2023/06/08 07:20:54;;;;;;;5.00;2.20;;;21.70;91.20;;;;;;5093033;28;20117;-74
2023/06/08 07:23:20;;;;;;;5.85;2.30;;;21.80;91.20;;;;;;5092952;28;20472;-73
2023/06/08 07:25:45;;;;;;;3.92;2.00;;;21.80;91.30;;;;;;5093066;28;20032;-73
2023/06/08 07:28:11;;;;;;;6.45;2.70;;;21.90;91.30;;;;;;5093229;28;20062;-73
2023/06/08 07:30:37;;;;;;;7.60;2.00;;;21.90;91.20;;;;;;5092858;28;20075;-72
2023/06/08 07:33:03;;;;;;;6.18;2.40;;;22.00;91.20;;;;;;5092821;28;20020;-72
2023/06/08 07:35:29;;;;;;;3.53;2.28;;;22.00;91.00;;;;;;5100638;22;20061;-72
2023/06/08 07:37:55;;;;;;;8.80;2.28;;;22.00;90.90;;;;;;5092601;28;20024;-71
2023/06/08 07:40:21;;;;;;;6.68;2.22;;;22.10;91.00;;;;;;5093119;28;20463;-72
2023/06/08 07:42:46;;;;;;;11.57;2.83;;;22.10;91.10;;;;;;5093058;28;20055;-72
2023/06/08 07:45:13;;;;;;;5.03;2.33;;;22.20;91.10;;;;;;5093194;28;20020;-72
2023/06/08 07:47:41;;;;;;;3.90;2.17;;;22.20;91.00;;;;;;5092564;28;20032;-72
2023/06/08 07:50:07;;;;;;;3.25;2.20;;;22.20;91.10;;;;;;5092375;28;20020;-72
2023/06/08 07:52:33;;;;;;;9.07;2.15;;;22.20;91.00;;;;;;5092292;28;20490;-72
2023/06/08 07:54:58;;;;;;;3.85;2.35;;;22.30;91.00;;;;;;5092750;28;20020;-72
2023/06/08 07:57:24;;;;;;;2.85;1.90;;;22.40;90.80;;;;;;5092791;28;20081;-72
2023/06/08 07:59:50;;;;;;;3.30;2.35;;;22.40;90.70;;;;;;5092668;28;20024;-72
2023/06/08 08:02:16;;;;;;;2.75;2.13;;;22.50;90.50;;;;;;5092288;28;20032;-72
2023/06/08 08:04:42;;;;;;;6.03;2.35;;;22.50;89.80;;;;;;5091230;28;20077;-71
2023/06/08 08:07:07;;;;;;;3.05;2.25;;;22.60;90.00;;;;;;5092296;28;20031;-71
2023/06/08 08:09:33;;;;;;;2.83;2.13;;;22.60;89.50;;;;;;5092322;28;20523;-72
2023/06/08 08:11:59;;;;;;;2.60;1.92;;;22.70;89.20;;;;;;5091864;28;20035;-73
2023/06/08 08:14:25;;;;;;;4.32;2.05;;;22.80;89.00;;;;;;5092332;28;20020;-72
2023/06/08 08:16:51;;;;;;;2.70;2.17;;;22.80;88.70;;;;;;5092827;28;20039;-75
2023/06/08 08:19:17;;;;;;;2.95;1.73;;;22.90;88.60;;;;;;5092516;28;20023;-74
2023/06/08 08:21:42;;;;;;;2.75;1.90;;;22.90;88.20;;;;;;5094537;28;20028;-74
2023/06/08 08:24:09;;;;;;;6.13;2.17;;;23.00;88.00;;;;;;5096776;28;20074;-74
2023/06/08 08:26:36;;;;;;;3.10;2.22;;;23.00;88.70;;;;;;5078276;28;20028;-74
2023/06/08 08:29:02;;;;;;;5.78;2.20;;;23.10;88.90;;;;;;5096411;28;20024;-74
2023/06/08 08:31:28;;;;;;;4.63;1.90;;;23.10;88.60;;;;;;5096593;28;20089;-74
2023/06/08 08:33:53;;;;;;;4.60;2.63;;;23.20;87.80;;;;;;5096342;28;20021;-74
2023/06/08 08:36:19;;;;;;;4.60;2.03;;;23.20;87.50;;;;;;5096151;28;20028;-74
2023/06/08 08:38:45;;;;;;;3.03;2.20;;;23.30;87.50;;;;;;5096418;28;20028;-73
2023/06/08 08:41:13;;;;;;;3.78;1.83;;;23.30;86.80;;;;;;5095142;28;20027;-74
2023/06/08 08:44:02;;;;;;;3.03;2.20;;;23.40;85.80;;;;;;5096149;28;20483;-74
2023/06/08 08:46:33;;;;;;;2.40;1.80;;;23.40;85.40;;;;;;5095866;28;20027;-74
2023/06/08 08:49:03;;;;;;;3.92;1.73;;;23.50;85.10;;;;;;5095955;28;20046;-74
2023/06/08 08:51:29;;;;;;;3.55;1.80;;;23.60;84.90;;;;;;5095850;28;20081;-75
2023/06/08 08:53:57;;;;;;;4.60;1.85;;;23.60;84.50;;;;;;5095818;28;20036;-74
2023/06/08 08:56:28;;;;;;;2.33;1.80;;;23.70;83.80;;;;;;5095601;28;20024;-74
2023/06/08 08:58:54;;;;;;;4.10;2.55;;;23.70;82.70;;;;;;5095591;28;20031;-74
2023/06/08 09:01:22;;;;;;;4.93;2.03;;;23.70;82.00;;;;;;5095672;28;20019;-74
2023/06/08 09:03:48;;;;;;;2.38;1.98;;;23.80;81.60;;;;;;5095790;28;20028;-74
2023/06/08 09:06:14;;;;;;;2.75;1.98;;;23.80;81.80;;;;;;5095635;28;20028;-74
2023/06/08 09:08:40;;;;;;;2.42;1.90;;;23.80;82.20;;;;;;5095948;28;20024;-74
2023/06/08 09:11:09;;;;;;;3.88;1.88;;;23.80;82.80;;;;;;5096014;28;20031;-75
2023/06/08 09:13:35;;;;;;;3.08;1.42;;;23.90;82.20;;;;;;5095914;28;20020;-74
2023/06/08 09:16:09;;;;;;;4.05;1.90;;;23.90;81.40;;;;;;5095722;28;20024;-74
2023/06/08 09:18:36;;;;;;;2.00;1.70;;;23.90;80.90;;;;;;5095689;28;20536;-74
2023/06/08 09:21:24;;;;;;;5.32;1.70;;;23.90;81.10;;;;;;5095629;28;20044;-73
2023/06/08 09:24:11;;;;;;;6.25;1.90;;;24.00;80.20;;;;;;5093807;28;20028;-74
2023/06/08 09:26:38;;;;;;;2.05;1.67;;;24.00;80.20;;;;;;5094900;28;20020;-73
2023/06/08 09:29:04;;;;;;;2.45;1.60;;;24.10;80.20;;;;;;5094765;28;20016;-73
2023/06/08 09:31:31;;;;;;;3.25;1.80;;;24.20;80.00;;;;;;5094837;28;20103;-74
2023/06/08 09:34:07;;;;;;;3.33;1.90;;;24.20;79.30;;;;;;5093480;28;20498;-74
2023/06/08 09:36:38;;;;;;;2.97;1.80;;;24.30;78.80;;;;;;5095102;28;20051;-73
2023/06/08 09:39:09;;;;;;;2.10;1.60;;;24.30;77.40;;;;;;5095138;28;20024;-74
2023/06/08 09:41:38;;;;;;;3.53;1.77;;;24.30;76.50;;;;;;5093983;28;20028;-73
2023/06/08 09:44:24;;;;;;;3.88;1.80;;;24.40;77.00;;;;;;5095288;28;20077;-73
2023/06/08 09:46:50;;;;;;;3.80;1.90;;;24.50;76.30;;;;;;5095295;28;20049;-74
2023/06/08 09:49:17;;;;;;;2.47;1.63;;;24.50;76.30;;;;;;5095053;28;20040;-75
2023/06/08 09:51:48;;;;;;;2.17;1.98;;;24.50;76.50;;;;;;5094934;28;20039;-73
2023/06/08 09:54:19;;;;;;;2.75;1.80;;;24.60;76.00;;;;;;5076733;28;20043;-74
2023/06/08 09:56:57;;;;;;;2.50;1.58;;;24.60;75.40;;;;;;5094759;28;20024;-74
2023/06/08 09:59:33;;;;;;;3.35;1.85;;;24.70;75.90;;;;;;5094772;28;20032;-73
2023/06/08 10:02:13;;;;;;;2.60;1.90;;;24.80;75.30;;;;;;5094596;28;20031;-74
2023/06/08 10:04:43;;;;;;;2.45;1.70;;;24.80;75.40;;;;;;5094338;28;20031;-74
2023/06/08 10:07:15;;;;;;;3.10;1.58;;;24.90;75.20;;;;;;5076829;28;20052;-74
2023/06/08 10:09:45;;;;;;;12.95;1.92;;;24.90;74.20;;;;;;5076785;28;20426;-75
2023/06/08 10:12:11;;;;;;;1.95;1.58;;;25.00;74.20;;;;;;5094903;28;20060;-74
2023/06/08 10:14:37;;;;;;;4.38;1.73;;;25.10;73.00;;;;;;5094465;28;20105;-75
2023/06/08 10:17:03;;;;;;;2.92;1.80;;;25.10;72.80;;;;;;5094494;28;20055;-74
2023/06/08 10:19:34;;;;;;;3.92;1.70;;;25.10;72.70;;;;;;5094551;28;20050;-76
2023/06/08 10:22:01;;;;;;;2.95;1.88;;;25.20;74.00;;;;;;5094082;28;20081;-75
2023/06/08 10:24:30;;;;;;;3.25;1.60;;;25.30;73.40;;;;;;5094192;28;20443;-79
2023/06/08 10:27:33;;;;;;;3.00;1.73;;;25.30;73.20;;;;;;5094637;28;20430;-79
2023/06/08 10:30:03;;;;;;;1.92;1.60;;;25.40;72.60;;;;;;5012204;28;20022;-77
2023/06/08 10:32:34;;;;;;;2.25;1.70;;;25.50;72.60;;;;;;5063335;28;20043;-74
2023/06/08 10:35:04;;;;;;;4.55;1.88;;;25.50;72.10;;;;;;5093439;28;20040;-74
2023/06/08 10:37:31;;;;;;;1.85;1.67;;;25.50;72.00;;;;;;5093803;28;20514;-74
2023/06/08 10:39:59;;;;;;;2.92;1.83;;;25.60;72.70;;;;;;5094002;28;20099;-74
2023/06/08 10:42:25;;;;;;;3.92;1.88;;;25.70;73.20;;;;;;5094407;28;20023;-75
2023/06/08 10:44:55;;;;;;;2.72;1.58;;;25.70;71.50;;;;;;5093980;28;20016;-73
2023/06/08 10:47:21;;;;;;;1.77;1.63;;;25.80;71.00;;;;;;5094109;28;20430;-74
2023/06/08 10:50:03;;;;;;;2.95;1.70;;;25.80;70.80;;;;;;5093497;28;20035;-74
2023/06/08 10:52:38;;;;;;;;;;;25.80;71.60;;;;;;5094403;28;20089;-74
2023/06/08 10:55:11;;;;;;;3.40;1.92;;;25.90;71.80;;;;;;5093750;28;19950;-73
2023/06/08 10:57:38;;;;;;;2.58;1.80;;;26.00;70.10;;;;;;5093911;28;20012;-75
2023/06/08 11:00:26;;;;;;;2.20;1.95;;;26.00;68.60;;;;;;5093757;28;20050;-75
2023/06/08 11:03:00;;;;;;;2.53;1.52;;;26.10;68.60;;;;;;5093565;28;20099;-75
2023/06/08 11:05:30;;;;;;;1.65;1.55;;;26.10;68.90;;;;;;5093586;28;20511;-74
2023/06/08 11:07:56;;;;;;;2.55;1.60;;;26.10;69.10;;;;;;5075185;28;20073;-75
2023/06/08 11:10:23;;;;;;;2.00;1.77;;;26.20;69.30;;;;;;5093434;28;20480;-75
2023/06/08 11:12:48;;;;;;;5.68;1.73;;;26.20;69.50;;;;;;5093329;28;20077;-74
2023/06/08 11:15:14;;;;;;;3.88;1.83;;;26.30;69.00;;;;;;5092976;28;20020;-74
2023/06/08 11:17:51;;;;;;;2.75;1.80;;;26.30;70.10;;;;;;5093178;28;20020;-75
2023/06/08 11:20:17;;;;;;;2.72;1.77;;;26.40;69.80;;;;;;5093332;28;20031;-73
2023/06/08 11:22:43;;;;;;;3.63;1.60;;;26.40;69.50;;;;;;5093164;28;20024;-75
2023/06/08 11:25:08;;;;;;;4.28;2.03;;;26.50;69.20;;;;;;5093359;28;20019;-74
2023/06/08 11:27:44;;;;;;;4.35;2.00;;;26.50;69.50;;;;;;5093000;28;20099;-74
2023/06/08 11:30:16;;;;;;;3.25;2.00;;;26.50;69.60;;;;;;5092894;28;20031;-74
2023/06/08 11:32:49;;;;;;;4.18;1.73;;;26.60;70.80;;;;;;5093051;28;20070;-73
2023/06/08 11:35:16;;;;;;;5.40;1.85;;;26.60;70.50;;;;;;5092689;28;20047;-74
2023/06/08 11:37:43;;;;;;;6.30;1.80;;;26.60;69.50;;;;;;5093022;28;20034;-74
2023/06/08 11:40:11;;;;;;;3.58;1.80;;;26.60;69.20;;;;;;5092948;28;20016;-74
2023/06/08 11:42:37;;;;;;;2.55;1.77;;;26.60;69.80;;;;;;5092973;28;20024;-73
2023/06/08 11:45:04;;;;;;;7.20;2.25;;;26.60;69.10;;;;;;5092728;28;20050;-76
2023/06/08 11:47:31;;;;;;;2.80;1.92;;;26.60;69.30;;;;;;5092993;28;20024;-73
2023/06/08 11:49:59;;;;;;;4.05;2.00;;;26.60;68.60;;;;;;5092599;28;20039;-76
2023/06/08 11:52:25;;;;;;;2.40;1.88;;;26.70;67.60;;;;;;5092991;28;20376;-74
2023/06/08 11:54:55;;;;;;;2.67;1.95;;;26.60;67.70;;;;;;5092909;28;20016;-76
2023/06/08 11:57:35;;;;;;;3.22;2.30;;;26.60;68.90;;;;;;5092456;28;20028;-75
2023/06/08 12:00:07;;;;;;;2.85;2.05;;;26.50;69.10;;;;;;5092679;28;20021;-74
2023/06/08 12:02:35;;;;;;;3.78;1.70;;;26.50;67.90;;;;;;5092612;28;20081;-75
2023/06/08 12:05:01;;;;;;;2.85;1.80;;;26.50;67.00;;;;;;5092699;28;20527;-75
2023/06/08 12:07:27;;;;;;;3.45;2.10;;;26.40;68.30;;;;;;5092885;28;20032;-74
2023/06/08 12:09:52;;;;;;;3.85;2.00;;;26.40;69.20;;;;;;5092808;28;20031;-74
2023/06/08 12:12:18;;;;;;;3.20;2.50;;;26.30;68.40;;;;;;5092589;28;20039;-74
2023/06/08 12:14:45;;;;;;;3.88;2.40;;;26.30;71.20;;;;;;5092890;28;20024;-75
2023/06/08 12:17:15;;;;;;;3.15;2.22;;;26.20;72.50;;;;;;5092525;28;20028;-74
2023/06/08 12:19:50;;;;;;;3.38;2.15;;;26.30;70.80;;;;;;5092727;28;20024;-75
2023/06/08 12:22:16;;;;;;;7.18;2.38;;;26.30;71.10;;;;;;5092462;28;20114;-74
2023/06/08 12:24:42;;;;;;;3.58;2.05;;;26.30;71.00;;;;;;5091367;28;20028;-73
2023/06/08 12:27:07;;;;;;;5.10;2.05;;;26.20;71.10;;;;;;5071346;28;20024;-74
2023/06/08 12:29:34;;;;;;;2.88;1.92;;;26.10;71.30;;;;;;5089490;28;20035;-74
2023/06/08 12:32:00;;;;;;;3.03;2.28;;;26.10;71.20;;;;;;5091656;28;20040;-74
2023/06/08 12:34:28;;;;;;;3.45;2.20;;;26.00;69.80;;;;;;5092135;28;20135;-74
2023/06/08 12:36:54;;;;;;;5.70;2.60;;;26.00;70.70;;;;;;5091857;28;20091;-73
2023/06/08 12:39:20;;;;;;;4.90;2.90;;;26.00;71.60;;;;;;5091398;28;20107;-74
2023/06/08 12:41:46;;;;;;;9.98;2.28;;;25.90;71.70;;;;;;5091850;28;20028;-74
2023/06/08 12:44:12;;;;;;;7.22;2.40;;;26.00;73.70;;;;;;5092042;28;20031;-75
2023/06/08 12:46:38;;;;;;;6.32;2.35;;;26.00;72.90;;;;;;5091733;28;20031;-74
2023/06/08 17:38:37;;;;;;;5.97;3.55;;;22.20;96.00;;;;;;5130600;27;20108;-70